sensor_id;sensor_type;location;lat;lon;timestamp;pressure;altitude;pressure_sealevel;temperature;humidity
13476;BME280;6810;63.824;20.288;2023-08-31T00:01:01;100761.00;;;16.15;88.28
13476;BME280;6810;63.824;20.288;2023-08-31T00:03:31;100762.81;;;16.15;87.70
13476;BME280;6810;63.824;20.288;2023-08-31T00:06:01;100768.31;;;16.13;87.94
13476;BME280;6810;63.824;20.288;2023-08-31T00:08:29;100760.25;;;16.13;88.50
13476;BME280;6810;63.824;20.288;2023-08-31T00:10:59;100773.81;;;16.12;88.35
13476;BME280;6810;63.824;20.288;2023-08-31T00:13:27;100765.63;;;16.13;87.85
13476;BME280;6810;63.824;20.288;2023-08-31T00:15:56;100767.31;;;16.14;87.57
13476;BME280;6810;63.824;20.288;2023-08-31T00:18:25;100765.50;;;16.15;87.95
13476;BME280;6810;63.824;20.288;2023-08-31T00:20:52;100765.38;;;16.16;88.33
13476;BME280;6810;63.824;20.288;2023-08-31T00:23:20;100763.69;;;16.15;87.55
13476;BME280;6810;63.824;20.288;2023-08-31T00:25:47;100749.88;;;16.09;88.04
13476;BME280;6810;63.824;20.288;2023-08-31T00:28:19;100716.63;;;15.88;88.30
13476;BME280;6810;63.824;20.288;2023-08-31T00:30:46;100750.22;;;16.04;88.14
13476;BME280;6810;63.824;20.288;2023-08-31T00:33:16;100747.41;;;16.06;88.15
13476;BME280;6810;63.824;20.288;2023-08-31T00:35:44;100764.75;;;16.13;88.25
13476;BME280;6810;63.824;20.288;2023-08-31T00:38:15;100755.00;;;16.01;88.30
13476;BME280;6810;63.824;20.288;2023-08-31T00:40:43;100759.75;;;16.08;87.98
13476;BME280;6810;63.824;20.288;2023-08-31T00:43:14;100750.72;;;15.98;88.38
13476;BME280;6810;63.824;20.288;2023-08-31T00:45:49;100766.63;;;16.12;88.02
13476;BME280;6810;63.824;20.288;2023-08-31T00:48:18;100769.44;;;16.11;88.63
13476;BME280;6810;63.824;20.288;2023-08-31T00:50:46;100772.94;;;16.11;88.39
13476;BME280;6810;63.824;20.288;2023-08-31T00:53:14;100779.44;;;16.09;88.07
13476;BME280;6810;63.824;20.288;2023-08-31T00:55:42;100780.44;;;16.08;88.65
13476;BME280;6810;63.824;20.288;2023-08-31T00:58:11;100778.69;;;16.07;88.90
13476;BME280;6810;63.824;20.288;2023-08-31T01:01:24;100770.75;;;16.05;88.69
13476;BME280;6810;63.824;20.288;2023-08-31T01:04:08;100768.94;;;16.06;88.26
13476;BME280;6810;63.824;20.288;2023-08-31T01:12:12;100760.88;;;16.06;88.46
13476;BME280;6810;63.824;20.288;2023-08-31T01:14:55;100751.94;;;16.05;88.96
13476;BME280;6810;63.824;20.288;2023-08-31T01:17:28;100760.88;;;16.06;88.83
13476;BME280;6810;63.824;20.288;2023-08-31T01:19:58;100759.25;;;16.03;88.76
13476;BME280;6810;63.824;20.288;2023-08-31T01:22:42;100765.75;;;16.01;88.45
13476;BME280;6810;63.824;20.288;2023-08-31T01:25:10;100750.59;;;16.00;88.97
13476;BME280;6810;63.824;20.288;2023-08-31T01:27:38;100666.03;;;15.48;88.83
13476;BME280;6810;63.824;20.288;2023-08-31T01:30:06;100753.16;;;16.01;88.31
13476;BME280;6810;63.824;20.288;2023-08-31T01:32:33;100753.16;;;16.01;89.16
13476;BME280;6810;63.824;20.288;2023-08-31T01:35:02;100746.94;;;16.01;88.83
13476;BME280;6810;63.824;20.288;2023-08-31T01:37:50;100746.06;;;16.00;88.84
13476;BME280;6810;63.824;20.288;2023-08-31T01:42:48;100734.22;;;16.03;88.82
13476;BME280;6810;63.824;20.288;2023-08-31T01:45:19;100730.66;;;16.02;88.93
13476;BME280;6810;63.824;20.288;2023-08-31T01:47:48;100724.66;;;15.99;88.74
13476;BME280;6810;63.824;20.288;2023-08-31T01:50:17;100717.72;;;15.96;88.92
13476;BME280;6810;63.824;20.288;2023-08-31T01:52:45;100729.94;;;16.00;88.90
13476;BME280;6810;63.824;20.288;2023-08-31T01:55:12;100721.28;;;15.97;88.95
13476;BME280;6810;63.824;20.288;2023-08-31T01:57:42;100718.72;;;15.95;88.98
13476;BME280;6810;63.824;20.288;2023-08-31T02:00:16;100729.94;;;16.00;89.21
13476;BME280;6810;63.824;20.288;2023-08-31T02:02:46;100711.25;;;15.88;88.84
13476;BME280;6810;63.824;20.288;2023-08-31T02:05:13;100726.66;;;15.97;88.68
13476;BME280;6810;63.824;20.288;2023-08-31T02:07:40;100707.09;;;15.84;88.51
13476;BME280;6810;63.824;20.288;2023-08-31T02:10:08;100725.03;;;15.94;89.22
13476;BME280;6810;63.824;20.288;2023-08-31T02:12:35;100712.34;;;15.85;89.40
13476;BME280;6810;63.824;20.288;2023-08-31T02:15:05;100720.16;;;15.88;89.15
13476;BME280;6810;63.824;20.288;2023-08-31T02:17:36;100706.97;;;15.85;89.21
13476;BME280;6810;63.824;20.288;2023-08-31T02:20:04;100678.13;;;15.65;88.85
13476;BME280;6810;63.824;20.288;2023-08-31T02:22:34;100712.84;;;15.90;88.95
13476;BME280;6810;63.824;20.288;2023-08-31T02:25:01;100725.41;;;15.90;89.03
13476;BME280;6810;63.824;20.288;2023-08-31T02:27:29;100696.25;;;15.74;89.02
13476;BME280;6810;63.824;20.288;2023-08-31T02:29:56;100703.06;;;15.78;89.23
13476;BME280;6810;63.824;20.288;2023-08-31T02:32:23;100721.88;;;15.89;88.40
13476;BME280;6810;63.824;20.288;2023-08-31T02:34:50;100677.19;;;15.66;88.90
13476;BME280;6810;63.824;20.288;2023-08-31T02:37:17;100712.09;;;15.88;88.88
13476;BME280;6810;63.824;20.288;2023-08-31T02:39:44;100713.09;;;15.87;88.70
13476;BME280;6810;63.824;20.288;2023-08-31T02:42:14;100701.50;;;15.76;89.07
13476;BME280;6810;63.824;20.288;2023-08-31T02:44:41;100716.88;;;15.85;89.06
13476;BME280;6810;63.824;20.288;2023-08-31T02:47:08;100716.88;;;15.85;88.90
13476;BME280;6810;63.824;20.288;2023-08-31T02:49:35;100707.94;;;15.84;88.81
13476;BME280;6810;63.824;20.288;2023-08-31T02:52:02;100651.66;;;15.49;88.35
13476;BME280;6810;63.824;20.288;2023-08-31T02:54:30;100703.69;;;15.82;88.52
13476;BME280;6810;63.824;20.288;2023-08-31T02:56:56;100697.56;;;15.80;88.52
13476;BME280;6810;63.824;20.288;2023-08-31T02:59:24;100702.22;;;15.78;88.11
13476;BME280;6810;63.824;20.288;2023-08-31T03:01:51;100709.56;;;15.76;88.10
13476;BME280;6810;63.824;20.288;2023-08-31T03:04:19;100701.63;;;15.74;88.70
13476;BME280;6810;63.824;20.288;2023-08-31T03:06:46;100691.69;;;15.75;88.49
13476;BME280;6810;63.824;20.288;2023-08-31T03:09:14;100686.44;;;15.73;88.56
13476;BME280;6810;63.824;20.288;2023-08-31T03:11:41;100693.69;;;15.73;88.75
13476;BME280;6810;63.824;20.288;2023-08-31T03:14:08;100650.06;;;15.47;88.87
13476;BME280;6810;63.824;20.288;2023-08-31T03:16:37;100664.84;;;15.52;88.78
13476;BME280;6810;63.824;20.288;2023-08-31T03:19:05;100694.75;;;15.70;88.63
13476;BME280;6810;63.824;20.288;2023-08-31T03:21:33;100687.06;;;15.66;88.69
13476;BME280;6810;63.824;20.288;2023-08-31T03:24:00;100696.13;;;15.65;88.68
13476;BME280;6810;63.824;20.288;2023-08-31T03:26:27;100694.38;;;15.63;88.48
13476;BME280;6810;63.824;20.288;2023-08-31T03:28:54;100701.13;;;15.69;89.29
13476;BME280;6810;63.824;20.288;2023-08-31T03:31:21;100683.63;;;15.63;88.94
13476;BME280;6810;63.824;20.288;2023-08-31T03:33:50;100689.50;;;15.69;88.99
13476;BME280;6810;63.824;20.288;2023-08-31T03:36:17;100680.13;;;15.63;89.18
13476;BME280;6810;63.824;20.288;2023-08-31T03:38:44;100668.75;;;15.59;89.24
13476;BME280;6810;63.824;20.288;2023-08-31T03:41:11;100686.94;;;15.67;89.33
13476;BME280;6810;63.824;20.288;2023-08-31T03:43:38;100677.88;;;15.68;89.64
13476;BME280;6810;63.824;20.288;2023-08-31T03:46:06;100671.69;;;15.68;89.66
13476;BME280;6810;63.824;20.288;2023-08-31T03:48:33;100652.00;;;15.56;89.39
13476;BME280;6810;63.824;20.288;2023-08-31T03:51:00;100665.69;;;15.64;89.70
13476;BME280;6810;63.824;20.288;2023-08-31T03:53:27;100676.94;;;15.69;88.99
13476;BME280;6810;63.824;20.288;2023-08-31T03:55:57;100616.47;;;15.41;89.53
13476;BME280;6810;63.824;20.288;2023-08-31T03:58:25;100623.78;;;15.39;89.61
13476;BME280;6810;63.824;20.288;2023-08-31T04:00:53;100674.94;;;15.71;89.87
13476;BME280;6810;63.824;20.288;2023-08-31T04:03:21;100584.59;;;15.26;89.81
13476;BME280;6810;63.824;20.288;2023-08-31T04:05:54;100667.75;;;15.72;90.04
13476;BME280;6810;63.824;20.288;2023-08-31T04:08:22;100665.06;;;15.72;89.98
13476;BME280;6810;63.824;20.288;2023-08-31T04:10:49;100602.53;;;15.36;89.24
13476;BME280;6810;63.824;20.288;2023-08-31T04:13:16;100645.06;;;15.65;89.90
13476;BME280;6810;63.824;20.288;2023-08-31T04:15:43;100662.38;;;15.72;89.83
13476;BME280;6810;63.824;20.288;2023-08-31T04:18:10;100659.69;;;15.72;89.41
13476;BME280;6810;63.824;20.288;2023-08-31T04:20:37;100654.31;;;15.72;89.46
13476;BME280;6810;63.824;20.288;2023-08-31T04:23:04;100638.56;;;15.67;89.84
13476;BME280;6810;63.824;20.288;2023-08-31T04:25:31;100649.81;;;15.72;89.96
13476;BME280;6810;63.824;20.288;2023-08-31T04:27:58;100641.63;;;15.74;90.14
13476;BME280;6810;63.824;20.288;2023-08-31T04:30:26;100633.69;;;15.61;90.06
13476;BME280;6810;63.824;20.288;2023-08-31T04:32:53;100645.19;;;15.74;90.07
13476;BME280;6810;63.824;20.288;2023-08-31T04:35:20;100633.94;;;15.69;90.18
13476;BME280;6810;63.824;20.288;2023-08-31T04:37:48;100633.31;;;15.77;89.77
13476;BME280;6810;63.824;20.288;2023-08-31T04:40:15;100624.25;;;15.78;89.50
13476;BME280;6810;63.824;20.288;2023-08-31T04:42:42;100613.28;;;15.70;89.50
13476;BME280;6810;63.824;20.288;2023-08-31T04:45:09;100622.44;;;15.78;89.49
13476;BME280;6810;63.824;20.288;2023-08-31T04:47:38;100607.88;;;15.70;89.27
13476;BME280;6810;63.824;20.288;2023-08-31T04:50:05;100626.00;;;15.79;89.41
13476;BME280;6810;63.824;20.288;2023-08-31T04:52:33;100633.06;;;15.80;89.76
13476;BME280;6810;63.824;20.288;2023-08-31T04:55:01;100577.28;;;15.50;89.62
13476;BME280;6810;63.824;20.288;2023-08-31T04:57:30;100622.31;;;15.80;89.39
13476;BME280;6810;63.824;20.288;2023-08-31T04:59:57;100626.56;;;15.82;89.33
13476;BME280;6810;63.824;20.288;2023-08-31T05:02:24;100631.00;;;15.83;89.95
13476;BME280;6810;63.824;20.288;2023-08-31T05:04:51;100620.13;;;15.85;89.64
13476;BME280;6810;63.824;20.288;2023-08-31T05:07:18;100628.31;;;15.83;89.55
13476;BME280;6810;63.824;20.288;2023-08-31T05:09:45;100629.88;;;15.86;89.09
13476;BME280;6810;63.824;20.288;2023-08-31T05:12:12;100549.09;;;15.44;89.57
13476;BME280;6810;63.824;20.288;2023-08-31T05:14:39;100622.56;;;15.88;89.88
13476;BME280;6810;63.824;20.288;2023-08-31T05:17:06;100606.41;;;15.88;88.99
13476;BME280;6810;63.824;20.288;2023-08-31T05:19:33;100619.84;;;15.88;89.18
13476;BME280;6810;63.824;20.288;2023-08-31T05:22:01;100618.13;;;15.87;89.81
13476;BME280;6810;63.824;20.288;2023-08-31T05:24:27;100622.69;;;15.86;89.26
13476;BME280;6810;63.824;20.288;2023-08-31T05:26:54;100627.19;;;15.86;89.19
13476;BME280;6810;63.824;20.288;2023-08-31T05:29:21;100634.38;;;15.85;89.38
13476;BME280;6810;63.824;20.288;2023-08-31T05:31:48;100621.56;;;15.78;89.87
13476;BME280;6810;63.824;20.288;2023-08-31T05:34:16;100613.25;;;15.81;89.55
13476;BME280;6810;63.824;20.288;2023-08-31T05:36:44;100638.44;;;15.91;89.18
13476;BME280;6810;63.824;20.288;2023-08-31T05:39:11;100635.88;;;15.89;89.81
13476;BME280;6810;63.824;20.288;2023-08-31T05:41:41;100642.19;;;15.88;89.15
13476;BME280;6810;63.824;20.288;2023-08-31T05:44:09;100623.75;;;15.84;89.48
13476;BME280;6810;63.824;20.288;2023-08-31T05:46:37;100629.75;;;15.87;90.06
13476;BME280;6810;63.824;20.288;2023-08-31T05:49:05;100621.81;;;15.75;90.24
13476;BME280;6810;63.824;20.288;2023-08-31T05:51:34;100637.06;;;15.85;89.94
13476;BME280;6810;63.824;20.288;2023-08-31T05:54:01;100628.56;;;15.80;90.17
13476;BME280;6810;63.824;20.288;2023-08-31T05:56:28;100638.81;;;15.86;89.97
13476;BME280;6810;63.824;20.288;2023-08-31T05:58:55;100639.25;;;15.91;89.95
13476;BME280;6810;63.824;20.288;2023-08-31T06:01:22;100638.44;;;15.91;89.76
13476;BME280;6810;63.824;20.288;2023-08-31T06:03:49;100631.06;;;15.93;90.01
13476;BME280;6810;63.824;20.288;2023-08-31T06:06:17;100635.75;;;15.91;90.07
13476;BME280;6810;63.824;20.288;2023-08-31T06:08:43;100621.31;;;15.92;90.16
13476;BME280;6810;63.824;20.288;2023-08-31T06:11:10;100630.50;;;15.89;90.50
13476;BME280;6810;63.824;20.288;2023-08-31T06:13:41;100622.19;;;15.92;90.64
13476;BME280;6810;63.824;20.288;2023-08-31T06:16:08;100626.69;;;15.92;90.61
13476;BME280;6810;63.824;20.288;2023-08-31T06:18:35;100628.50;;;15.91;90.36
13476;BME280;6810;63.824;20.288;2023-08-31T06:21:02;100623.13;;;15.91;90.49
13476;BME280;6810;63.824;20.288;2023-08-31T06:23:29;100626.94;;;15.89;90.98
13476;BME280;6810;63.824;20.288;2023-08-31T06:25:56;100622.31;;;15.91;90.97
13476;BME280;6810;63.824;20.288;2023-08-31T06:28:23;100601.41;;;15.83;91.00
13476;BME280;6810;63.824;20.288;2023-08-31T06:30:50;100620.19;;;15.94;91.07
13476;BME280;6810;63.824;20.288;2023-08-31T06:33:18;100611.16;;;15.95;90.59
13476;BME280;6810;63.824;20.288;2023-08-31T06:35:47;100591.25;;;15.87;91.14
13476;BME280;6810;63.824;20.288;2023-08-31T06:38:19;100607.34;;;15.98;91.20
13476;BME280;6810;63.824;20.288;2023-08-31T06:40:47;100601.84;;;15.99;90.81
13476;BME280;6810;63.824;20.288;2023-08-31T06:43:14;100598.31;;;15.99;90.64
13476;BME280;6810;63.824;20.288;2023-08-31T06:45:41;100576.50;;;15.81;90.88
13476;BME280;6810;63.824;20.288;2023-08-31T06:48:08;100599.16;;;15.99;90.79
13476;BME280;6810;63.824;20.288;2023-08-31T06:50:36;100600.16;;;15.98;90.83
13476;BME280;6810;63.824;20.288;2023-08-31T06:53:03;100594.53;;;16.01;90.79
13476;BME280;6810;63.824;20.288;2023-08-31T06:55:31;100593.53;;;16.02;91.70
13476;BME280;6810;63.824;20.288;2023-08-31T06:58:00;100532.69;;;15.58;91.34
13476;BME280;6810;63.824;20.288;2023-08-31T07:00:27;100598.78;;;16.04;91.39
13476;BME280;6810;63.824;20.288;2023-08-31T07:02:55;100582.28;;;15.97;91.49
13476;BME280;6810;63.824;20.288;2023-08-31T07:05:25;100571.78;;;15.94;91.49
13476;BME280;6810;63.824;20.288;2023-08-31T07:07:53;100597.56;;;16.08;91.64
13476;BME280;6810;63.824;20.288;2023-08-31T07:10:21;100576.53;;;16.02;91.34
13476;BME280;6810;63.824;20.288;2023-08-31T07:12:48;100600.84;;;16.11;91.03
13476;BME280;6810;63.824;20.288;2023-08-31T07:15:17;100598.88;;;16.13;91.77
13476;BME280;6810;63.824;20.288;2023-08-31T07:17:45;100592.91;;;16.10;91.69
13476;BME280;6810;63.824;20.288;2023-08-31T07:20:13;100592.50;;;16.14;91.83
13476;BME280;6810;63.824;20.288;2023-08-31T07:22:40;100598.63;;;16.16;91.90
13476;BME280;6810;63.824;20.288;2023-08-31T07:25:07;100593.25;;;16.16;91.23
13476;BME280;6810;63.824;20.288;2023-08-31T07:27:35;100587.75;;;16.18;91.34
13476;BME280;6810;63.824;20.288;2023-08-31T07:30:03;100594.13;;;16.17;92.22
13476;BME280;6810;63.824;20.288;2023-08-31T07:32:31;100564.22;;;15.99;92.04
13476;BME280;6810;63.824;20.288;2023-08-31T07:34:59;100598.63;;;16.16;91.64
13476;BME280;6810;63.824;20.288;2023-08-31T07:37:26;100598.63;;;16.16;91.98
13476;BME280;6810;63.824;20.288;2023-08-31T07:39:53;100546.41;;;15.87;91.88
13476;BME280;6810;63.824;20.288;2023-08-31T07:42:20;100599.38;;;16.18;92.22
13476;BME280;6810;63.824;20.288;2023-08-31T07:44:47;100593.97;;;16.18;91.85
13476;BME280;6810;63.824;20.288;2023-08-31T07:47:14;100592.13;;;16.19;91.39
13476;BME280;6810;63.824;20.288;2023-08-31T07:49:41;100593.00;;;16.19;91.67
13476;BME280;6810;63.824;20.288;2023-08-31T07:52:09;100586.88;;;16.17;91.48
13476;BME280;6810;63.824;20.288;2023-08-31T07:54:36;100591.56;;;16.15;91.88
13476;BME280;6810;63.824;20.288;2023-08-31T07:57:03;100598.38;;;16.19;91.53
13476;BME280;6810;63.824;20.288;2023-08-31T07:59:30;100598.38;;;16.19;91.93
13476;BME280;6810;63.824;20.288;2023-08-31T08:01:57;100594.13;;;16.17;92.17
13476;BME280;6810;63.824;20.288;2023-08-31T08:04:25;100528.84;;;15.83;91.98
13476;BME280;6810;63.824;20.288;2023-08-31T08:06:53;100597.38;;;16.20;91.78
13476;BME280;6810;63.824;20.288;2023-08-31T08:09:20;100592.75;;;16.22;91.79
13476;BME280;6810;63.824;20.288;2023-08-31T08:11:48;100588.22;;;16.23;92.42
13476;BME280;6810;63.824;20.288;2023-08-31T08:14:15;100585.66;;;16.21;92.64
13476;BME280;6810;63.824;20.288;2023-08-31T08:16:42;100516.50;;;15.81;92.33
13476;BME280;6810;63.824;20.288;2023-08-31T08:19:10;100570.75;;;16.17;92.46
13476;BME280;6810;63.824;20.288;2023-08-31T08:21:37;100580.84;;;16.25;92.02
13476;BME280;6810;63.824;20.288;2023-08-31T08:24:04;100576.34;;;16.25;92.29
13476;BME280;6810;63.824;20.288;2023-08-31T08:26:31;100565.59;;;16.25;92.78
13476;BME280;6810;63.824;20.288;2023-08-31T08:28:58;100584.03;;;16.30;92.41
13476;BME280;6810;63.824;20.288;2023-08-31T08:31:25;100582.19;;;16.30;93.02
13476;BME280;6810;63.824;20.288;2023-08-31T08:33:52;100577.38;;;16.34;92.92
13476;BME280;6810;63.824;20.288;2023-08-31T08:36:19;100575.56;;;16.34;92.45
13476;BME280;6810;63.824;20.288;2023-08-31T08:38:46;100575.69;;;16.33;92.54
13476;BME280;6810;63.824;20.288;2023-08-31T08:41:14;100571.88;;;16.35;91.90
13476;BME280;6810;63.824;20.288;2023-08-31T08:43:42;100567.63;;;16.33;92.24
13476;BME280;6810;63.824;20.288;2023-08-31T08:46:10;100570.91;;;16.36;92.67
13476;BME280;6810;63.824;20.288;2023-08-31T08:48:38;100573.59;;;16.36;92.62
13476;BME280;6810;63.824;20.288;2023-08-31T08:51:07;100564.81;;;16.34;92.37
13476;BME280;6810;63.824;20.288;2023-08-31T08:53:34;100539.06;;;16.21;92.74
13476;BME280;6810;63.824;20.288;2023-08-31T08:56:01;100565.28;;;16.39;92.76
13476;BME280;6810;63.824;20.288;2023-08-31T08:58:29;100564.16;;;16.42;92.31
13476;BME280;6810;63.824;20.288;2023-08-31T09:00:56;100568.47;;;16.44;92.97
13476;BME280;6810;63.824;20.288;2023-08-31T09:03:24;100552.22;;;16.35;92.55
13476;BME280;6810;63.824;20.288;2023-08-31T09:05:51;100534.03;;;16.27;92.77
13476;BME280;6810;63.824;20.288;2023-08-31T09:08:27;100565.53;;;16.47;92.77
13476;BME280;6810;63.824;20.288;2023-08-31T09:10:57;100560.84;;;16.49;92.51
13476;BME280;6810;63.824;20.288;2023-08-31T09:13:29;100556.19;;;16.51;93.03
13476;BME280;6810;63.824;20.288;2023-08-31T09:15:57;100556.06;;;16.53;93.55
13476;BME280;6810;63.824;20.288;2023-08-31T09:18:26;100555.06;;;16.54;93.00
13476;BME280;6810;63.824;20.288;2023-08-31T09:20:55;100548.59;;;16.56;93.44
13476;BME280;6810;63.824;20.288;2023-08-31T09:23:25;100515.16;;;16.38;93.54
13476;BME280;6810;63.824;20.288;2023-08-31T09:25:54;100547.47;;;16.59;93.82
13476;BME280;6810;63.824;20.288;2023-08-31T09:28:26;100547.19;;;16.62;93.67
13476;BME280;6810;63.824;20.288;2023-08-31T09:31:06;100528.16;;;16.54;92.97
13476;BME280;6810;63.824;20.288;2023-08-31T09:33:37;100542.28;;;16.67;93.02
13476;BME280;6810;63.824;20.288;2023-08-31T09:36:07;100535.03;;;16.67;93.87
13476;BME280;6810;63.824;20.288;2023-08-31T09:38:44;100529.56;;;16.69;93.09
13476;BME280;6810;63.824;20.288;2023-08-31T09:41:12;100515.75;;;16.62;93.27
13476;BME280;6810;63.824;20.288;2023-08-31T09:43:39;100536.38;;;16.73;93.27
13476;BME280;6810;63.824;20.288;2023-08-31T09:46:07;100468.81;;;16.35;93.88
13476;BME280;6810;63.824;20.288;2023-08-31T09:48:36;100515.97;;;16.70;93.94
13476;BME280;6810;63.824;20.288;2023-08-31T09:51:05;100514.97;;;16.71;93.84
13476;BME280;6810;63.824;20.288;2023-08-31T09:53:35;100521.78;;;16.75;93.60
13476;BME280;6810;63.824;20.288;2023-08-31T09:56:05;100520.94;;;16.75;93.36
13476;BME280;6810;63.824;20.288;2023-08-31T09:58:33;100523.50;;;16.76;93.62
13476;BME280;6810;63.824;20.288;2023-08-31T10:01:00;100525.06;;;16.79;94.13
13476;BME280;6810;63.824;20.288;2023-08-31T10:03:30;100523.94;;;16.81;93.39
13476;BME280;6810;63.824;20.288;2023-08-31T10:05:59;100525.66;;;16.82;93.32
13476;BME280;6810;63.824;20.288;2023-08-31T10:08:27;100521.09;;;16.83;93.32
13476;BME280;6810;63.824;20.288;2023-08-31T10:10:59;100519.28;;;16.83;93.30
13476;BME280;6810;63.824;20.288;2023-08-31T10:13:31;100514.75;;;16.84;93.01
13476;BME280;6810;63.824;20.288;2023-08-31T10:16:04;100478.91;;;16.63;93.34
13476;BME280;6810;63.824;20.288;2023-08-31T10:18:32;100520.28;;;16.82;93.12
13476;BME280;6810;63.824;20.288;2023-08-31T10:21:02;100520.84;;;16.86;93.64
13476;BME280;6810;63.824;20.288;2023-08-31T10:23:29;100524.38;;;16.86;93.36
13476;BME280;6810;63.824;20.288;2023-08-31T10:28:25;100524.66;;;16.83;92.69
13476;BME280;6810;63.824;20.288;2023-08-31T10:31:06;100522.97;;;16.82;92.99
13476;BME280;6810;63.824;20.288;2023-08-31T10:33:41;100520.13;;;16.84;92.66
13476;BME280;6810;63.824;20.288;2023-08-31T10:36:14;100461.00;;;16.52;92.55
13476;BME280;6810;63.824;20.288;2023-08-31T10:38:59;100514.75;;;16.84;92.72
13476;BME280;6810;63.824;20.288;2023-08-31T10:41:34;100513.75;;;16.85;93.02
13476;BME280;6810;63.824;20.288;2023-08-31T10:44:26;100510.19;;;16.84;92.23
13476;BME280;6810;63.824;20.288;2023-08-31T10:46:54;100473.25;;;16.66;92.58
13476;BME280;6810;63.824;20.288;2023-08-31T10:49:22;100499.84;;;16.80;92.77
13476;BME280;6810;63.824;20.288;2023-08-31T10:51:54;100503.13;;;16.83;92.11
13476;BME280;6810;63.824;20.288;2023-08-31T10:54:26;100494.59;;;16.78;92.62
13476;BME280;6810;63.824;20.288;2023-08-31T10:59:54;100504.13;;;16.82;92.44
13476;BME280;6810;63.824;20.288;2023-08-31T11:07:42;100461.06;;;16.62;91.45
13476;BME280;6810;63.824;20.288;2023-08-31T11:10:13;100491.50;;;16.83;91.61
13476;BME280;6810;63.824;20.288;2023-08-31T11:12:42;100485.53;;;16.79;91.54
13476;BME280;6810;63.824;20.288;2023-08-31T11:15:17;100482.59;;;16.82;91.67
13476;BME280;6810;63.824;20.288;2023-08-31T11:17:46;100493.06;;;16.85;91.78
13476;BME280;6810;63.824;20.288;2023-08-31T11:20:15;100487.69;;;16.85;91.63
13476;BME280;6810;63.824;20.288;2023-08-31T11:22:46;100486.69;;;16.86;92.04
13476;BME280;6810;63.824;20.288;2023-08-31T11:25:13;100416.94;;;16.44;91.37
13476;BME280;6810;63.824;20.288;2023-08-31T11:27:41;100485.84;;;16.86;92.05
13476;BME280;6810;63.824;20.288;2023-08-31T11:30:15;100490.53;;;16.84;91.47
13476;BME280;6810;63.824;20.288;2023-08-31T11:32:51;100487.97;;;16.82;92.13
13476;BME280;6810;63.824;20.288;2023-08-31T11:35:20;100479.03;;;16.82;91.99
13476;BME280;6810;63.824;20.288;2023-08-31T11:37:55;100490.66;;;16.82;91.45
13476;BME280;6810;63.824;20.288;2023-08-31T11:40:22;100495.91;;;16.84;91.41
13476;BME280;6810;63.824;20.288;2023-08-31T11:42:49;100408.25;;;16.40;91.63
13476;BME280;6810;63.824;20.288;2023-08-31T11:45:18;100476.19;;;16.83;91.33
13476;BME280;6810;63.824;20.288;2023-08-31T11:47:46;100484.28;;;16.83;91.33
13476;BME280;6810;63.824;20.288;2023-08-31T11:50:15;100478.16;;;16.81;91.21
13476;BME280;6810;63.824;20.288;2023-08-31T11:52:44;100454.00;;;16.61;91.51
13476;BME280;6810;63.824;20.288;2023-08-31T11:55:12;100470.34;;;16.69;92.01
13476;BME280;6810;63.824;20.288;2023-08-31T11:57:40;100479.16;;;16.80;91.78
13476;BME280;6810;63.824;20.288;2023-08-31T12:00:07;100474.63;;;16.81;91.17
13476;BME280;6810;63.824;20.288;2023-08-31T12:02:37;100483.69;;;16.80;91.18
13476;BME280;6810;63.824;20.288;2023-08-31T12:05:05;100475.59;;;16.80;91.63
13476;BME280;6810;63.824;20.288;2023-08-31T12:07:39;100469.53;;;16.78;91.28
13476;BME280;6810;63.824;20.288;2023-08-31T12:10:07;100473.03;;;16.78;91.43
13476;BME280;6810;63.824;20.288;2023-08-31T12:12:34;100447.03;;;16.58;91.50
13476;BME280;6810;63.824;20.288;2023-08-31T12:15:03;100475.88;;;16.77;91.10
13476;BME280;6810;63.824;20.288;2023-08-31T12:17:37;100473.19;;;16.77;91.66
13476;BME280;6810;63.824;20.288;2023-08-31T12:20:06;100473.31;;;16.75;91.35
13476;BME280;6810;63.824;20.288;2023-08-31T12:22:33;100476.16;;;16.74;90.64
13476;BME280;6810;63.824;20.288;2023-08-31T12:25:02;100477.28;;;16.71;91.26
13476;BME280;6810;63.824;20.288;2023-08-31T12:27:29;100477.41;;;16.70;91.57
13476;BME280;6810;63.824;20.288;2023-08-31T12:29:57;100449.00;;;16.56;91.45
13476;BME280;6810;63.824;20.288;2023-08-31T12:32:24;100448.41;;;16.53;91.22
13476;BME280;6810;63.824;20.288;2023-08-31T12:34:52;100475.81;;;16.67;90.55
13476;BME280;6810;63.824;20.288;2023-08-31T12:37:19;100472.28;;;16.67;90.84
13476;BME280;6810;63.824;20.288;2023-08-31T12:39:46;100468.00;;;16.64;91.36
13476;BME280;6810;63.824;20.288;2023-08-31T12:42:13;100466.31;;;16.63;91.35
13476;BME280;6810;63.824;20.288;2023-08-31T12:44:49;100470.41;;;16.58;91.35
13476;BME280;6810;63.824;20.288;2023-08-31T12:47:16;100473.53;;;16.63;90.89
13476;BME280;6810;63.824;20.288;2023-08-31T12:49:44;100474.41;;;16.63;91.32
13476;BME280;6810;63.824;20.288;2023-08-31T12:52:11;100466.31;;;16.63;90.81
13476;BME280;6810;63.824;20.288;2023-08-31T12:54:38;100391.41;;;16.18;91.28
13476;BME280;6810;63.824;20.288;2023-08-31T12:57:05;100467.88;;;16.66;91.26
13476;BME280;6810;63.824;20.288;2023-08-31T12:59:32;100464.22;;;16.67;91.27
13476;BME280;6810;63.824;20.288;2023-08-31T13:01:59;100373.44;;;16.18;91.06
13476;BME280;6810;63.824;20.288;2023-08-31T13:04:28;100413.47;;;16.42;90.67
13476;BME280;6810;63.824;20.288;2023-08-31T13:06:55;100455.56;;;16.63;90.95
13476;BME280;6810;63.824;20.288;2023-08-31T13:09:22;100448.63;;;16.61;90.52
13476;BME280;6810;63.824;20.288;2023-08-31T13:11:49;100450.44;;;16.60;91.21
13476;BME280;6810;63.824;20.288;2023-08-31T13:14:16;100444.34;;;16.58;91.22
13476;BME280;6810;63.824;20.288;2023-08-31T13:16:43;100434.97;;;16.53;91.12